createdAt,value
2019-02-05T00:00:34.716Z,102022.80
2019-02-05T00:01:08.059Z,102017.09
2019-02-05T00:01:39.344Z,102017.09
2019-02-05T00:02:11.816Z,102015.52
2019-02-05T00:02:43.202Z,102013.83
2019-02-05T00:04:07.828Z,102015.76
2019-02-05T00:04:39.230Z,102007.49
2019-02-05T00:05:10.516Z,102010.70
2019-02-05T00:05:41.820Z,102010.70
2019-02-05T00:06:13.076Z,102011.22
2019-02-05T00:06:44.547Z,102013.94
2019-02-05T00:07:15.833Z,102005.66
2019-02-05T00:07:47.515Z,102011.35
2019-02-05T00:08:18.695Z,102011.35
2019-02-05T00:08:49.939Z,102010.06
2019-02-05T00:09:21.130Z,102006.56
2019-02-05T00:09:52.393Z,102006.17
2019-02-05T00:10:23.617Z,102006.17
2019-02-05T00:10:54.905Z,102001.91
2019-02-05T00:11:26.278Z,102004.98
2019-02-05T00:11:57.568Z,102010.16
2019-02-05T00:12:29.028Z,102010.16
2019-02-05T00:13:00.261Z,102007.18
2019-02-05T00:13:31.445Z,102009.52
2019-02-05T00:14:02.977Z,102003.14
2019-02-05T00:14:34.150Z,102003.66
2019-02-05T00:15:05.473Z,102002.27
2019-02-05T00:15:37.659Z,102000.69
2019-02-05T00:16:08.926Z,102006.77
2019-02-05T00:16:40.167Z,102014.53
2019-02-05T00:17:11.436Z,102008.97
2019-02-05T00:17:42.619Z,101998.02
2019-02-05T00:18:14.084Z,102010.50
2019-02-05T00:18:45.286Z,102012.31
2019-02-05T00:19:16.758Z,102011.02
2019-02-05T00:19:48.960Z,102014.90
2019-02-05T00:20:20.166Z,102013.61
2019-02-05T00:20:51.372Z,102014.52
2019-02-05T00:21:22.613Z,102009.85
2019-02-05T00:21:53.851Z,102012.83
2019-02-05T00:22:25.133Z,102012.02
2019-02-05T00:22:56.412Z,102008.13
2019-02-05T00:23:27.692Z,102006.84
2019-02-05T00:23:58.965Z,102012.44
2019-02-05T00:24:30.245Z,102003.77
2019-02-05T00:25:01.919Z,102006.36
2019-02-05T00:25:33.174Z,102003.37
2019-02-05T00:26:06.352Z,102002.08
2019-02-05T00:26:37.956Z,102002.95
2019-02-05T00:27:09.205Z,102006.45
2019-02-05T00:27:40.367Z,102006.36
2019-02-05T00:28:11.610Z,102007.13
2019-02-05T00:28:42.787Z,102003.25
2019-02-05T00:29:14.051Z,102007.65
2019-02-05T00:29:45.231Z,102003.25
2019-02-05T00:30:16.534Z,102005.06
2019-02-05T00:30:48.113Z,102004.02
2019-02-05T00:31:19.372Z,102004.55
2019-02-05T00:31:50.633Z,102005.84
2019-02-05T00:32:22.060Z,102003.77
2019-02-05T00:32:53.248Z,102001.56
2019-02-05T00:33:24.472Z,102004.55
2019-02-05T00:33:55.676Z,102007.65
2019-02-05T00:34:26.899Z,101999.36
2019-02-05T00:34:58.132Z,101999.36
2019-02-05T00:35:29.364Z,101996.91
2019-02-05T00:36:00.620Z,101999.98
2019-02-05T00:36:32.164Z,101998.30
2019-02-05T00:37:03.413Z,101998.30
2019-02-05T00:37:34.636Z,101999.07
2019-02-05T00:38:06.242Z,101999.59
2019-02-05T00:38:37.451Z,101993.89
2019-02-05T00:39:08.677Z,101992.73
2019-02-05T00:39:39.906Z,101992.73
2019-02-05T00:40:14.420Z,101994.41
2019-02-05T00:40:46.213Z,101990.01
2019-02-05T00:41:17.455Z,101990.91
2019-02-05T00:41:48.649Z,101990.53
2019-02-05T00:42:19.881Z,101986.64
2019-02-05T00:42:51.099Z,101986.55
2019-02-05T00:43:22.760Z,101986.55
2019-02-05T00:43:54.031Z,101987.03
2019-02-05T00:44:25.286Z,101985.73
2019-02-05T00:44:56.475Z,101962.00
2019-02-05T00:45:27.702Z,101962.00
2019-02-05T00:45:58.892Z,101978.64
2019-02-05T00:46:30.151Z,101983.05
2019-02-05T00:47:01.324Z,101980.95
2019-02-05T00:47:32.583Z,101984.34
2019-02-05T00:48:04.076Z,101984.34
2019-02-05T00:48:35.326Z,101974.77
2019-02-05T00:49:06.932Z,101977.48
2019-02-05T00:49:38.176Z,101978.64
2019-02-05T00:50:12.468Z,101974.77
2019-02-05T00:50:43.726Z,101976.19
2019-02-05T00:51:14.918Z,101976.19
2019-02-05T00:51:46.163Z,101978.36
2019-02-05T00:52:17.395Z,101974.98
2019-02-05T00:52:48.584Z,101972.40
2019-02-05T00:53:19.807Z,101980.17
2019-02-05T00:53:51.011Z,101975.38
2019-02-05T00:54:22.237Z,101975.77
2019-02-05T00:54:53.725Z,101977.48
2019-02-05T00:55:24.931Z,101973.98
2019-02-05T00:55:56.193Z,101971.39
2019-02-05T00:56:27.408Z,101972.17
2019-02-05T00:56:58.641Z,101966.09
2019-02-05T00:57:29.867Z,101966.09
2019-02-05T00:58:01.099Z,101969.06
2019-02-05T00:58:32.317Z,101969.06
2019-02-05T00:59:03.744Z,101968.06
2019-02-05T00:59:34.954Z,101971.39
2019-02-05T01:00:11.874Z,101969.58
2019-02-05T01:00:43.110Z,101972.30
2019-02-05T01:01:15.507Z,101972.30
2019-02-05T01:01:47.241Z,101968.00
2019-02-05T01:02:19.477Z,101968.00
2019-02-05T01:02:50.764Z,101965.70
2019-02-05T01:03:22.073Z,101967.12
2019-02-05T01:03:53.350Z,101966.99
2019-02-05T01:04:24.650Z,101966.99
2019-02-05T01:04:55.965Z,101968.00
2019-02-05T01:05:27.426Z,101964.41
2019-02-05T01:05:58.615Z,101957.93
2019-02-05T01:06:29.865Z,101965.18
2019-02-05T01:07:01.025Z,101965.18
2019-02-05T01:07:32.465Z,101960.78
2019-02-05T01:08:03.725Z,101959.48
2019-02-05T01:08:34.959Z,101959.91
2019-02-05T01:09:06.782Z,101957.44
2019-02-05T01:09:38.027Z,101957.44
2019-02-05T01:10:09.505Z,101965.73
2019-02-05T01:10:40.765Z,101960.03
2019-02-05T01:11:11.960Z,101963.43
2019-02-05T01:11:43.204Z,101958.64
2019-02-05T01:12:14.387Z,101956.95
2019-02-05T01:12:45.737Z,101958.64
2019-02-05T01:13:17.259Z,101956.05
2019-02-05T01:13:48.509Z,101955.23
2019-02-05T01:14:19.706Z,101951.36
2019-02-05T01:14:51.033Z,101954.63
2019-02-05T01:15:24.020Z,101950.22
2019-02-05T01:15:55.280Z,101949.73
2019-02-05T01:16:26.490Z,101949.73
2019-02-05T01:16:57.738Z,101947.92
2019-02-05T01:17:28.930Z,101949.98
2019-02-05T01:18:00.181Z,101940.80
2019-02-05T01:18:31.360Z,101943.39
2019-02-05T01:19:02.988Z,101941.87
2019-02-05T01:19:34.158Z,101948.08
2019-02-05T01:20:10.868Z,101942.00
2019-02-05T01:20:42.040Z,101946.27
2019-02-05T01:21:13.274Z,101943.16
2019-02-05T01:21:44.443Z,101943.55
2019-02-05T01:22:15.755Z,101945.13
2019-02-05T01:22:47.161Z,101941.50
2019-02-05T01:23:18.393Z,101939.20
2019-02-05T01:23:49.604Z,101939.20
2019-02-05T01:24:20.837Z,101940.50
2019-02-05T01:24:52.054Z,101939.59
2019-02-05T01:25:23.264Z,101938.16
2019-02-05T01:25:54.785Z,101934.28
2019-02-05T01:26:29.005Z,101936.35
2019-02-05T01:26:59.111Z,101934.15
2019-02-05T01:27:30.341Z,101933.67
2019-02-05T01:28:01.585Z,101929.66
2019-02-05T01:28:33.111Z,101926.83
2019-02-05T01:29:04.347Z,101934.31
2019-02-05T01:29:35.640Z,101933.02
2019-02-05T01:30:13.932Z,101926.06
2019-02-05T01:30:45.212Z,101928.52
2019-02-05T01:31:16.512Z,101921.14
2019-02-05T01:31:47.792Z,101925.80
2019-02-05T01:32:19.072Z,101921.01
2019-02-05T01:32:50.447Z,101919.33
2019-02-05T01:33:21.630Z,101921.14
2019-02-05T01:33:53.264Z,101917.55
2019-02-05T01:34:24.469Z,101917.13
2019-02-05T01:34:55.793Z,101917.55
2019-02-05T01:35:26.967Z,101911.47
2019-02-05T01:35:58.244Z,101915.73
2019-02-05T01:36:29.453Z,101917.80
2019-02-05T01:37:00.692Z,101909.27
2019-02-05T01:37:31.867Z,101908.36
2019-02-05T01:38:03.281Z,101910.95
2019-02-05T01:38:34.453Z,101913.14
2019-02-05T01:39:06.035Z,101908.22
2019-02-05T01:39:37.632Z,101911.20
2019-02-05T01:40:14.003Z,101911.59
2019-02-05T01:40:45.479Z,101908.13
2019-02-05T01:41:16.741Z,101904.63
2019-02-05T01:41:47.936Z,101901.52
2019-02-05T01:42:19.165Z,101908.52
2019-02-05T01:42:50.556Z,101905.80
2019-02-05T01:43:21.803Z,101907.09
2019-02-05T01:43:52.980Z,101906.70
2019-02-05T01:44:24.248Z,101902.30
2019-02-05T01:44:55.460Z,101904.11
2019-02-05T01:45:26.702Z,101896.73
2019-02-05T01:45:57.899Z,101897.52
2019-02-05T01:46:29.534Z,101901.30
2019-02-05T01:47:00.706Z,101896.12
2019-02-05T01:47:31.968Z,101894.44
2019-02-05T01:48:03.168Z,101892.49
2019-02-05T01:48:34.638Z,101896.38
2019-02-05T01:49:06.251Z,101898.97
2019-02-05T01:49:38.530Z,101899.48
2019-02-05T01:50:16.529Z,101895.98
2019-02-05T01:50:47.849Z,101895.22
2019-02-05T01:51:19.110Z,101896.38
2019-02-05T01:51:50.403Z,101894.08
2019-02-05T01:52:23.611Z,101892.78
2019-02-05T01:52:54.887Z,101894.85
2019-02-05T01:53:26.423Z,101892.27
2019-02-05T01:53:57.609Z,101892.13
2019-02-05T01:54:28.867Z,101885.56
2019-02-05T01:55:00.050Z,101892.52
2019-02-05T01:55:31.305Z,101892.03
2019-02-05T01:56:02.510Z,101891.22
2019-02-05T01:56:40.411Z,101889.83
2019-02-05T01:57:06.843Z,101897.20
2019-02-05T01:57:38.074Z,101898.50
2019-02-05T01:58:09.302Z,101890.73
2019-02-05T01:58:40.616Z,101897.59
2019-02-05T01:59:11.900Z,101892.81
2019-02-05T01:59:43.193Z,101894.48
2019-02-05T02:00:19.886Z,101888.80
2019-02-05T02:00:51.186Z,101889.18
2019-02-05T02:01:22.458Z,101891.38
2019-02-05T02:01:53.746Z,101887.89
2019-02-05T02:02:26.022Z,101899.14
2019-02-05T02:02:57.307Z,101888.70
2019-02-05T02:03:28.522Z,101890.77
2019-02-05T02:03:59.684Z,101896.71
2019-02-05T02:04:30.961Z,101893.61
2019-02-05T02:05:04.021Z,101894.89
2019-02-05T02:05:35.218Z,101895.67
2019-02-05T02:06:06.877Z,101885.75
2019-02-05T02:06:38.071Z,101885.23
2019-02-05T02:07:09.723Z,101885.23
2019-02-05T02:07:41.037Z,101886.91
2019-02-05T02:08:12.376Z,101882.50
2019-02-05T02:08:43.592Z,101881.60
2019-02-05T02:09:14.835Z,101878.53
2019-02-05T02:09:46.053Z,101878.01
2019-02-05T02:10:24.849Z,101877.63
2019-02-05T02:10:56.057Z,101880.98
2019-02-05T02:11:27.272Z,101879.69
2019-02-05T02:11:58.483Z,101877.87
2019-02-05T02:12:29.699Z,101871.80
2019-02-05T02:13:00.915Z,101874.28
2019-02-05T02:13:32.149Z,101877.74
2019-02-05T02:14:03.834Z,101872.56
2019-02-05T02:14:35.030Z,101869.98
2019-02-05T02:15:09.132Z,101872.98
2019-02-05T02:15:40.446Z,101872.98
2019-02-05T02:16:11.618Z,101869.88
2019-02-05T02:16:42.843Z,101873.77
2019-02-05T02:17:14.029Z,101864.97
2019-02-05T02:17:45.303Z,101869.36
2019-02-05T02:18:16.483Z,101867.94
2019-02-05T02:18:47.751Z,101868.07
2019-02-05T02:19:18.945Z,101861.89
2019-02-05T02:19:50.600Z,101864.48
2019-02-05T02:20:21.782Z,101868.61
2019-02-05T02:20:53.044Z,101856.06
2019-02-05T02:21:24.237Z,101862.14
2019-02-05T02:21:55.505Z,101862.53
2019-02-05T02:22:26.679Z,101856.97
2019-02-05T02:22:57.927Z,101861.23
2019-02-05T02:23:29.153Z,101861.23
2019-02-05T02:24:00.363Z,101855.55
2019-02-05T02:24:31.579Z,101858.94
2019-02-05T02:25:06.901Z,101859.84
2019-02-05T02:25:38.415Z,101852.48
2019-02-05T02:26:09.643Z,101851.57
2019-02-05T02:26:51.633Z,101848.47
2019-02-05T02:27:14.374Z,101855.70
2019-02-05T02:27:47.424Z,101851.30
2019-02-05T02:28:18.639Z,101851.72
2019-02-05T02:28:49.832Z,101849.01
2019-02-05T02:29:21.071Z,101843.31
2019-02-05T02:29:52.270Z,101845.38
2019-02-05T02:30:29.891Z,101840.20
2019-02-05T02:31:01.276Z,101846.67
2019-02-05T02:31:32.640Z,101844.09
2019-02-05T02:32:03.946Z,101842.31
2019-02-05T02:32:35.244Z,101843.98
2019-02-05T02:33:06.908Z,101840.50
2019-02-05T02:33:38.537Z,101841.92
2019-02-05T02:34:09.763Z,101845.80
2019-02-05T02:34:41.022Z,101835.84
2019-02-05T02:35:12.202Z,101837.00
2019-02-05T02:35:43.415Z,101842.56
2019-02-05T02:36:14.766Z,101840.75
2019-02-05T02:36:45.989Z,101835.58
2019-02-05T02:37:17.260Z,101840.75
2019-02-05T02:37:48.463Z,101834.80
2019-02-05T02:38:19.642Z,101843.34
2019-02-05T02:38:50.876Z,101842.43
2019-02-05T02:39:22.487Z,101835.58
2019-02-05T02:39:53.688Z,101835.58
2019-02-05T02:40:24.921Z,101835.97
2019-02-05T02:40:56.141Z,101835.58
2019-02-05T02:41:27.382Z,101840.75
2019-02-05T02:41:58.603Z,101839.98
2019-02-05T02:42:29.864Z,101842.17
2019-02-05T02:43:01.052Z,101838.16
2019-02-05T02:43:32.292Z,101833.37
2019-02-05T02:44:03.588Z,101833.37
2019-02-05T02:44:34.818Z,101837.25
2019-02-05T02:45:12.530Z,101832.51
2019-02-05T02:45:43.736Z,101838.55
2019-02-05T02:46:15.255Z,101831.70
2019-02-05T02:46:46.490Z,101832.89
2019-02-05T02:47:17.685Z,101830.31
2019-02-05T02:47:48.886Z,101836.77
2019-02-05T02:48:20.107Z,101836.64
2019-02-05T02:48:51.337Z,101827.07
2019-02-05T02:49:22.532Z,101827.59
2019-02-05T02:49:53.771Z,101827.98
2019-02-05T02:50:24.943Z,101828.88
2019-02-05T02:50:56.209Z,101827.98
2019-02-05T02:51:27.386Z,101825.29
2019-02-05T02:51:59.119Z,101826.30
2019-02-05T02:52:31.301Z,101816.34
2019-02-05T02:53:02.581Z,101819.83
2019-02-05T02:53:33.830Z,101821.13
2019-02-05T02:54:05.091Z,101821.90
2019-02-05T02:54:36.636Z,101817.11
2019-02-05T02:55:07.967Z,101822.28
2019-02-05T02:55:39.443Z,101814.81
2019-02-05T02:56:10.681Z,101819.60
2019-02-05T02:56:41.869Z,101817.02
2019-02-05T02:57:13.110Z,101818.31
2019-02-05T02:57:44.468Z,101816.24
2019-02-05T02:58:15.752Z,101811.84
2019-02-05T02:58:46.895Z,101817.02
2019-02-05T02:59:18.152Z,101815.72
2019-02-05T02:59:49.421Z,101814.81
2019-02-05T03:00:21.280Z,101818.17
2019-02-05T03:00:52.468Z,101819.85
2019-02-05T03:01:23.720Z,101819.85
2019-02-05T03:01:54.926Z,101816.88
2019-02-05T03:02:26.174Z,101815.59
2019-02-05T03:02:57.370Z,101820.89
2019-02-05T03:03:29.013Z,101817.79
2019-02-05T03:04:00.217Z,101817.79
2019-02-05T03:04:31.414Z,101819.60
2019-02-05T03:05:07.131Z,101820.37
2019-02-05T03:05:38.340Z,101813.39
2019-02-05T03:06:09.545Z,101816.49
2019-02-05T03:06:40.795Z,101810.03
2019-02-05T03:07:11.975Z,101817.41
2019-02-05T03:07:43.148Z,101813.52
2019-02-05T03:08:14.453Z,101814.81
2019-02-05T03:08:45.675Z,101813.14
2019-02-05T03:09:17.181Z,101809.26
2019-02-05T03:09:48.408Z,101818.17
2019-02-05T03:10:28.384Z,101796.66
2019-02-05T03:10:59.677Z,101808.22
2019-02-05T03:11:30.909Z,101811.33
2019-02-05T03:12:02.122Z,101807.97
2019-02-05T03:12:33.559Z,101800.98
2019-02-05T03:13:04.866Z,101800.98
2019-02-05T03:13:36.080Z,101802.66
2019-02-05T03:14:07.350Z,101803.19
2019-02-05T03:14:38.528Z,101798.78
2019-02-05T03:15:10.076Z,101798.78
2019-02-05T03:15:41.263Z,101803.57
2019-02-05T03:16:12.726Z,101800.98
2019-02-05T03:16:44.014Z,101795.30
2019-02-05T03:17:15.341Z,101795.30
2019-02-05T03:17:46.570Z,101800.85
2019-02-05T03:18:17.917Z,101800.85
2019-02-05T03:18:49.118Z,101804.86
2019-02-05T03:19:20.357Z,101795.42
2019-02-05T03:19:51.605Z,101808.36
2019-02-05T03:20:22.870Z,101803.95
2019-02-05T03:20:54.463Z,101808.73
2019-02-05T03:21:25.867Z,101804.86
2019-02-05T03:21:57.148Z,101805.25
2019-02-05T03:22:28.375Z,101810.80
2019-02-05T03:22:59.661Z,101804.34
2019-02-05T03:23:30.886Z,101806.67
2019-02-05T03:24:02.052Z,101803.05
2019-02-05T03:24:33.455Z,101806.16
2019-02-05T03:25:09.000Z,101806.16
2019-02-05T03:25:40.238Z,101799.17
2019-02-05T03:26:11.414Z,101801.66
2019-02-05T03:26:42.989Z,101801.27
2019-02-05T03:27:17.964Z,101799.46
2019-02-05T03:27:47.429Z,101803.72
2019-02-05T03:28:18.586Z,101807.22
2019-02-05T03:28:49.846Z,101805.92
2019-02-05T03:29:21.185Z,101802.95
2019-02-05T03:29:52.462Z,101810.80
2019-02-05T03:30:23.903Z,101806.02
2019-02-05T03:30:55.285Z,101807.31
2019-02-05T03:31:26.800Z,101802.81
2019-02-05T03:31:58.177Z,101808.61
2019-02-05T03:32:29.751Z,101809.52
2019-02-05T03:33:01.129Z,101801.75
2019-02-05T03:33:32.505Z,101806.45
2019-02-05T03:34:03.935Z,101798.17
2019-02-05T03:34:35.185Z,101797.27
2019-02-05T03:35:07.685Z,101802.81
2019-02-05T03:35:38.999Z,101799.33
2019-02-05T03:36:10.191Z,101797.13
2019-02-05T03:36:41.465Z,101794.02
2019-02-05T03:37:12.961Z,101789.66
2019-02-05T03:37:44.206Z,101789.27
2019-02-05T03:38:15.383Z,101797.80
2019-02-05T03:38:46.635Z,101791.73
2019-02-05T03:39:17.892Z,101786.95
2019-02-05T03:39:49.101Z,101786.81
2019-02-05T03:40:34.810Z,101789.39
2019-02-05T03:41:06.109Z,101788.10
2019-02-05T03:41:37.501Z,101788.10
2019-02-05T03:42:08.834Z,101794.08
2019-02-05T03:42:40.110Z,101790.69
2019-02-05T03:43:11.349Z,101783.09
2019-02-05T03:43:42.542Z,101787.62
2019-02-05T03:44:13.782Z,101788.91
2019-02-05T03:44:45.008Z,101784.64
2019-02-05T03:45:16.690Z,101786.71
2019-02-05T03:45:47.989Z,101788.39
2019-02-05T03:46:19.267Z,101784.90
2019-02-05T03:46:50.663Z,101783.99
2019-02-05T03:47:22.032Z,101788.39
2019-02-05T03:47:55.703Z,101785.80
2019-02-05T03:48:27.141Z,101784.52
2019-02-05T03:48:58.422Z,101783.99
2019-02-05T03:49:29.795Z,101789.16
2019-02-05T03:50:01.072Z,101782.31
2019-02-05T03:50:45.553Z,101781.41
2019-02-05T03:51:28.305Z,101780.11
2019-02-05T03:52:03.122Z,101778.83
2019-02-05T03:52:39.810Z,101771.36
2019-02-05T03:53:25.527Z,101772.23
2019-02-05T03:54:14.586Z,101777.40
2019-02-05T03:54:51.542Z,101777.30
2019-02-05T03:55:43.156Z,101770.84
2019-02-05T03:56:51.869Z,101770.84
2019-02-05T03:57:40.706Z,101771.36
2019-02-05T03:58:34.102Z,101770.06
2019-02-05T03:59:17.786Z,101766.96
2019-02-05T04:00:29.542Z,101772.13
2019-02-05T04:01:15.053Z,101774.33
2019-02-05T04:02:03.393Z,101776.53
2019-02-05T04:03:04.161Z,101784.28
2019-02-05T04:03:56.027Z,101775.63
2019-02-05T04:05:20.919Z,101778.69
2019-02-05T04:06:03.861Z,101786.58
2019-02-05T04:07:03.605Z,101773.66
2019-02-05T04:07:47.581Z,101778.69
2019-02-05T04:08:54.371Z,101776.63
2019-02-05T04:09:56.528Z,101783.99
2019-02-05T04:11:09.898Z,101779.59
2019-02-05T04:12:07.525Z,101780.11
2019-02-05T04:12:58.990Z,101781.28
2019-02-05T04:13:41.943Z,101771.74
2019-02-05T04:14:41.490Z,101773.94
2019-02-05T04:15:30.423Z,101772.13
2019-02-05T04:16:37.248Z,101766.31
2019-02-05T04:17:31.654Z,101768.13
2019-02-05T04:18:23.615Z,101768.80
2019-02-05T04:19:32.249Z,101769.56
2019-02-05T04:20:24.679Z,101769.56
2019-02-05T04:21:30.015Z,101761.42
2019-02-05T04:22:09.799Z,101756.39
2019-02-05T04:22:55.877Z,101760.14
2019-02-05T04:23:56.451Z,101760.27
2019-02-05T04:25:07.794Z,101766.21
2019-02-05T04:25:53.831Z,101762.59
2019-02-05T04:26:50.075Z,101763.78
2019-02-05T04:27:44.085Z,101757.42
2019-02-05T04:28:26.686Z,101763.49
2019-02-05T04:29:21.594Z,101758.32
2019-02-05T04:30:07.036Z,101756.64
2019-02-05T04:31:02.061Z,101758.45
2019-02-05T04:32:01.592Z,101756.78
2019-02-05T04:32:47.288Z,101753.83
2019-02-05T04:33:42.350Z,101758.84
2019-02-05T04:34:47.400Z,101755.87
2019-02-05T04:35:48.266Z,101756.78
2019-02-05T04:36:43.325Z,101756.88
2019-02-05T04:37:43.944Z,101751.61
2019-02-05T04:38:44.687Z,101746.83
2019-02-05T04:39:33.439Z,101756.64
2019-02-05T04:40:28.603Z,101749.28
2019-02-05T04:41:08.186Z,101750.47
2019-02-05T04:41:53.900Z,101749.66
2019-02-05T04:42:34.701Z,101750.05
2019-02-05T04:43:29.709Z,101750.05
2019-02-05T04:44:24.928Z,101747.89
2019-02-05T04:45:18.472Z,101748.76
2019-02-05T04:46:10.488Z,101747.08
2019-02-05T04:47:05.393Z,101745.30
2019-02-05T04:47:56.629Z,101744.11
2019-02-05T04:48:59.278Z,101747.22
2019-02-05T04:49:46.019Z,101745.53
2019-02-05T04:50:44.977Z,101747.73
2019-02-05T04:52:00.843Z,101748.50
2019-02-05T04:52:57.146Z,101744.50
2019-02-05T04:54:13.977Z,101748.37
2019-02-05T04:55:15.027Z,101748.89
2019-02-05T04:56:00.884Z,101748.37
2019-02-05T04:56:40.762Z,101757.94
2019-02-05T04:57:32.359Z,101759.75
2019-02-05T04:58:48.732Z,101754.19
2019-02-05T04:59:51.428Z,101747.89
2019-02-05T05:00:45.711Z,101755.87
2019-02-05T05:01:43.313Z,101750.70
2019-02-05T05:02:40.604Z,101750.31
2019-02-05T05:03:35.268Z,101752.09
2019-02-05T05:04:46.676Z,101757.69
2019-02-05T05:05:38.751Z,101753.67
2019-02-05T05:06:24.330Z,101750.70
2019-02-05T05:07:09.851Z,101750.19
2019-02-05T05:08:04.920Z,101754.97
2019-02-05T05:09:08.783Z,101757.16
2019-02-05T05:09:55.457Z,101758.84
2019-02-05T05:10:27.002Z,101763.62
2019-02-05T05:10:58.262Z,101763.49
2019-02-05T05:11:29.628Z,101761.05
2019-02-05T05:12:00.848Z,101758.32
2019-02-05T05:12:32.098Z,101766.98
2019-02-05T05:13:03.520Z,101763.88
2019-02-05T05:13:34.748Z,101766.46
2019-02-05T05:14:06.032Z,101764.27
2019-02-05T05:14:37.261Z,101764.27
2019-02-05T05:15:09.188Z,101762.59
2019-02-05T05:15:40.412Z,101762.20
2019-02-05T05:16:12.034Z,101765.17
2019-02-05T05:16:43.831Z,101762.59
2019-02-05T05:17:15.047Z,101759.09
2019-02-05T05:17:46.267Z,101756.93
2019-02-05T05:18:17.585Z,101762.97
2019-02-05T05:18:49.796Z,101761.68
2019-02-05T05:19:22.129Z,101755.22
2019-02-05T05:19:53.370Z,101759.00
2019-02-05T05:20:24.605Z,101756.13
2019-02-05T05:20:55.858Z,101759.52
2019-02-05T05:21:27.068Z,101762.97
2019-02-05T05:21:59.709Z,101756.03
2019-02-05T05:22:30.957Z,101752.53
2019-02-05T05:23:02.299Z,101758.61
2019-02-05T05:23:33.631Z,101758.48
2019-02-05T05:24:04.922Z,101755.13
2019-02-05T05:24:36.628Z,101754.73
2019-02-05T05:25:08.873Z,101754.34
2019-02-05T05:25:40.237Z,101756.52
2019-02-05T05:26:11.473Z,101755.36
2019-02-05T05:26:42.789Z,101750.57
2019-02-05T05:27:15.031Z,101751.48
2019-02-05T05:27:46.674Z,101748.89
2019-02-05T05:28:17.953Z,101750.70
2019-02-05T05:28:49.155Z,101750.70
2019-02-05T05:29:20.359Z,101747.34
2019-02-05T05:29:51.570Z,101743.20
2019-02-05T05:30:22.894Z,101739.33
2019-02-05T05:30:54.155Z,101750.70
2019-02-05T05:31:25.356Z,101746.31
2019-02-05T05:31:56.604Z,101741.14
2019-02-05T05:32:27.913Z,101742.05
2019-02-05T05:32:59.226Z,101744.24
2019-02-05T05:33:30.880Z,101747.59
2019-02-05T05:34:02.301Z,101751.22
2019-02-05T05:34:33.695Z,101745.63
2019-02-05T05:35:07.603Z,101749.51
2019-02-05T05:35:43.510Z,101747.06
2019-02-05T05:36:12.033Z,101745.37
2019-02-05T05:36:47.942Z,101747.58
2019-02-05T05:37:20.397Z,101742.80
2019-02-05T05:37:51.691Z,101742.51
2019-02-05T05:38:22.975Z,101743.67
2019-02-05T05:38:54.276Z,101744.16
2019-02-05T05:39:25.472Z,101746.74
2019-02-05T05:39:56.756Z,101745.87
2019-02-05T05:40:29.170Z,101746.74
2019-02-05T05:41:00.394Z,101746.74
2019-02-05T05:41:31.605Z,101741.09
2019-02-05T05:42:03.157Z,101741.09
2019-02-05T05:42:34.370Z,101738.77
2019-02-05T05:43:05.589Z,101740.19
2019-02-05T05:43:36.800Z,101738.77
2019-02-05T05:44:09.553Z,101727.91
2019-02-05T05:44:41.047Z,101731.78
2019-02-05T05:45:12.872Z,101733.98
2019-02-05T05:45:44.196Z,101732.30
2019-02-05T05:46:15.726Z,101736.17
2019-02-05T05:46:46.943Z,101730.48
2019-02-05T05:47:18.161Z,101731.01
2019-02-05T05:47:49.365Z,101734.50
2019-02-05T05:48:20.580Z,101732.30
2019-02-05T05:48:51.875Z,101733.88
2019-02-05T05:49:23.094Z,101736.05
2019-02-05T05:49:54.306Z,101739.05
2019-02-05T05:50:25.638Z,101735.95
2019-02-05T05:50:56.860Z,101738.53
2019-02-05T05:51:28.124Z,101737.23
2019-02-05T05:51:59.744Z,101741.11
2019-02-05T05:52:31.098Z,101737.23
2019-02-05T05:53:02.433Z,101732.07
2019-02-05T05:53:33.690Z,101732.45
2019-02-05T05:54:04.903Z,101735.42
2019-02-05T05:54:36.238Z,101735.04
2019-02-05T05:55:07.552Z,101734.66
2019-02-05T05:55:38.968Z,101733.88
2019-02-05T05:56:10.178Z,101732.45
2019-02-05T05:56:41.760Z,101734.13
2019-02-05T05:57:13.991Z,101729.88
2019-02-05T05:57:45.326Z,101728.58
2019-02-05T05:58:23.460Z,101721.50
2019-02-05T05:58:49.688Z,101726.67
2019-02-05T05:59:20.861Z,101727.55
2019-02-05T05:59:52.219Z,101727.96
2019-02-05T06:00:23.502Z,101727.06
2019-02-05T06:00:54.740Z,101724.86
2019-02-05T06:01:25.932Z,101730.55
2019-02-05T06:01:57.176Z,101725.25
2019-02-05T06:02:30.549Z,101735.20
2019-02-05T06:03:01.887Z,101737.78
2019-02-05T06:03:33.474Z,101735.20
2019-02-05T06:04:04.808Z,101736.48
2019-02-05T06:04:36.187Z,101736.48
2019-02-05T06:05:07.631Z,101742.05
2019-02-05T06:05:38.869Z,101737.78
2019-02-05T06:06:10.180Z,101743.72
2019-02-05T06:06:41.674Z,101740.37
2019-02-05T06:07:12.936Z,101737.27
2019-02-05T06:07:44.218Z,101740.75
2019-02-05T06:08:15.770Z,101740.37
2019-02-05T06:08:46.963Z,101739.59
2019-02-05T06:09:18.210Z,101736.72
2019-02-05T06:09:49.387Z,101739.30
2019-02-05T06:10:20.632Z,101735.42
2019-02-05T06:10:51.837Z,101731.84
2019-02-05T06:11:23.152Z,101731.42
2019-02-05T06:11:54.372Z,101738.30
2019-02-05T06:12:25.631Z,101733.13
2019-02-05T06:12:56.941Z,101734.67
2019-02-05T06:13:28.306Z,101729.89
2019-02-05T06:13:59.961Z,101733.39
2019-02-05T06:14:31.262Z,101735.84
2019-02-05T06:15:06.229Z,101734.45
2019-02-05T06:15:37.604Z,101734.45
2019-02-05T06:16:09.125Z,101735.73
2019-02-05T06:16:40.463Z,101737.03
2019-02-05T06:17:11.715Z,101737.55
2019-02-05T06:17:42.907Z,101735.73
2019-02-05T06:18:14.243Z,101731.09
2019-02-05T06:18:45.428Z,101733.67
2019-02-05T06:19:16.681Z,101732.38
2019-02-05T06:19:48.163Z,101735.84
2019-02-05T06:20:19.426Z,101735.84
2019-02-05T06:20:50.688Z,101735.45
2019-02-05T06:21:21.937Z,101733.77
2019-02-05T06:21:53.146Z,101736.74
2019-02-05T06:22:24.366Z,101732.09
2019-02-05T06:22:55.568Z,101733.25
2019-02-05T06:23:26.796Z,101735.36
2019-02-05T06:23:57.976Z,101729.80
2019-02-05T06:24:29.221Z,101731.58
2019-02-05T06:25:00.513Z,101723.34
2019-02-05T06:25:32.167Z,101731.19
2019-02-05T06:26:03.358Z,101728.98
2019-02-05T06:26:34.715Z,101721.76
2019-02-05T06:27:06.209Z,101721.76
2019-02-05T06:27:37.499Z,101722.28
2019-02-05T06:28:08.776Z,101714.13
2019-02-05T06:28:40.045Z,101718.77
2019-02-05T06:29:11.324Z,101705.45
2019-02-05T06:29:42.619Z,101716.66
2019-02-05T06:30:15.554Z,101706.74
2019-02-05T06:30:46.953Z,101712.91
2019-02-05T06:31:18.572Z,101701.67
2019-02-05T06:31:49.843Z,101704.26
2019-02-05T06:32:21.114Z,101703.09
2019-02-05T06:32:52.393Z,101699.22
2019-02-05T06:33:23.711Z,101703.61
2019-02-05T06:33:54.916Z,101702.32
2019-02-05T06:34:26.154Z,101704.52
2019-02-05T06:34:57.309Z,101703.61